Time;durP1;ratioP1;P1;durP2;ratioP2;P2;SDS_P1;SDS_P2;PMS_P1;PMS_P2;Temp;Humidity;BMP_temperature;BMP_pressure;BME280_temperature;BME280_humidity;BME280_pressure;Samples;Min_cycle;Max_cycle;Signal;HPM_P1;HPM_P2
2022/05/05 00:02:10;;;;;;;11.32;5.10;;;;;;;;;;5049343;28;20075;-80
2022/05/05 00:04:36;;;;;;;7.15;5.07;;;;;;;;;;5050087;28;20044;-80
2022/05/05 00:07:02;;;;;;;15.02;5.13;;;;;;;;;;5050074;28;20048;-80
2022/05/05 00:09:29;;;;;;;9.75;5.38;;;;;;;;;;5049659;28;20241;-80
2022/05/05 00:14:40;;;;;;;10.05;4.43;;;;;;;;;;5064474;28;20127;-81
2022/05/05 00:17:09;;;;;;;8.27;4.97;;;;;;;;;;5049506;28;20037;-81
2022/05/05 00:19:37;;;;;;;11.65;5.32;;;;;;;;;;5050956;28;20092;-81
2022/05/05 00:22:04;;;;;;;10.52;5.63;;;;;;;;;;5069776;28;20082;-81
2022/05/05 00:24:31;;;;;;;9.80;5.07;;;;;;;;;;5053168;28;20094;-81
2022/05/05 00:26:57;;;;;;;10.80;5.05;;;;;;;;;;5069969;28;20067;-81
2022/05/05 00:29:23;;;;;;;10.10;4.47;;;;;;;;;;5070316;28;20063;-81
2022/05/05 00:31:49;;;;;;;9.68;4.68;;;;;;;;;;5053446;28;20040;-81
2022/05/05 00:34:16;;;;;;;13.38;4.63;;;;;;;;;;5053359;28;20041;-81
2022/05/05 00:36:42;;;;;;;10.38;5.32;;;;;;;;;;5052358;28;20052;-81
2022/05/05 00:39:08;;;;;;;12.68;5.35;;;;;;;;;;5052399;28;20059;-81
2022/05/05 00:41:35;;;;;;;8.88;4.35;;;;;;;;;;5052466;28;20078;-81
2022/05/05 00:44:04;;;;;;;8.98;4.45;;;;;;;;;;5069592;28;20051;-81
2022/05/05 00:46:31;;;;;;;7.32;4.53;;;;;;;;;;5052914;28;20414;-81
2022/05/05 00:48:57;;;;;;;15.98;5.07;;;;;;;;;;5052936;28;20048;-80
2022/05/05 00:51:23;;;;;;;8.80;4.30;;;;;;;;;;5069498;28;20466;-80
2022/05/05 00:53:49;;;;;;;9.95;5.90;;;;;;;;;;5069297;28;20037;-80
2022/05/05 00:56:16;;;;;;;12.48;4.63;;;;;;;;;;5069283;28;20090;-80
2022/05/05 00:58:44;;;;;;;8.75;5.15;;;;;;;;;;5069443;28;20048;-80
2022/05/05 01:01:10;;;;;;;12.52;5.15;;;;;;;;;;5069377;28;20078;-80
2022/05/05 01:03:37;;;;;;;10.98;5.03;;;;;;;;;;5052600;28;20040;-80
2022/05/05 01:06:04;;;;;;;10.80;5.65;;;;;;;;;;5069406;28;20057;-81
2022/05/05 01:08:30;;;;;;;9.85;4.63;;;;;;;;;;5052507;28;20496;-81
2022/05/05 01:10:56;;;;;;;11.98;5.22;;;;;;;;;;5069442;28;20052;-81
2022/05/05 01:13:23;;;;;;;7.18;4.45;;;;;;;;;;5052628;28;20045;-81
2022/05/05 01:15:49;;;;;;;9.52;5.38;;;;;;;;;;5052341;28;20091;-81
2022/05/05 01:18:15;;;;;;;10.60;4.68;;;;;;;;;;5052807;28;20045;-81
2022/05/05 01:20:45;;;;;;;7.95;4.30;;;;;;;;;;5052282;28;20052;-81
2022/05/05 01:23:11;;;;;;;8.55;5.15;;;;;;;;;;5052290;28;20043;-81
2022/05/05 01:28:22;;;;;;;8.63;4.45;;;;;;;;;;5069235;28;20041;-81
2022/05/05 01:30:48;;;;;;;10.43;4.75;;;;;;;;;;5052535;28;20036;-81
2022/05/05 01:33:15;;;;;;;12.52;5.40;;;;;;;;;;5052534;28;20076;-81
2022/05/05 01:35:42;;;;;;;9.50;5.22;;;;;;;;;;5052064;28;20047;-81
2022/05/05 01:38:08;;;;;;;12.70;4.95;;;;;;;;;;5052053;28;20083;-81
2022/05/05 01:40:36;;;;;;;9.63;4.72;;;;;;;;;;5052174;28;20033;-81
2022/05/05 01:43:02;;;;;;;10.30;4.82;;;;;;;;;;5052949;28;20504;-81
2022/05/05 01:45:28;;;;;;;11.32;4.65;;;;;;;;;;5069814;28;20382;-81
2022/05/05 01:47:54;;;;;;;11.23;5.05;;;;;;;;;;5052956;28;20552;-81
2022/05/05 01:50:20;;;;;;;10.57;5.25;;;;;;;;;;5052791;28;20043;-81
2022/05/05 01:52:47;;;;;;;12.05;5.50;;;;;;;;;;5052836;28;20078;-81
2022/05/05 01:55:13;;;;;;;9.98;4.85;;;;;;;;;;5055739;28;20576;-81
2022/05/05 01:57:39;;;;;;;7.45;4.50;;;;;;;;;;5056759;28;20076;-81
2022/05/05 02:00:06;;;;;;;11.75;4.78;;;;;;;;;;5072614;28;20040;-80
2022/05/05 02:02:32;;;;;;;11.75;4.45;;;;;;;;;;5055507;28;20028;-80
2022/05/05 02:04:58;;;;;;;9.43;4.25;;;;;;;;;;5053157;28;20463;-81
2022/05/05 02:07:24;;;;;;;10.10;4.72;;;;;;;;;;5055734;28;20119;-81
2022/05/05 02:09:50;;;;;;;9.73;5.28;;;;;;;;;;5056066;28;20052;-81
2022/05/05 02:12:16;;;;;;;6.55;4.57;;;;;;;;;;5055674;28;20044;-81
2022/05/05 02:14:42;;;;;;;11.20;4.85;;;;;;;;;;5055605;28;20472;-81
2022/05/05 02:17:10;;;;;;;7.57;4.88;;;;;;;;;;5055816;28;20071;-81
2022/05/05 02:19:36;;;;;;;11.40;5.28;;;;;;;;;;5055959;28;20178;-81
2022/05/05 02:22:02;;;;;;;9.30;5.22;;;;;;;;;;5055747;28;20037;-81
2022/05/05 02:24:28;;;;;;;12.90;5.25;;;;;;;;;;5055987;28;20032;-81
2022/05/05 02:26:54;;;;;;;10.15;5.32;;;;;;;;;;5055860;28;20040;-81
2022/05/05 02:29:20;;;;;;;8.15;4.72;;;;;;;;;;5055745;28;20127;-81
2022/05/05 02:31:46;;;;;;;10.07;5.72;;;;;;;;;;5055677;28;20117;-81
2022/05/05 02:34:12;;;;;;;12.80;5.32;;;;;;;;;;5056020;28;20044;-81
2022/05/05 02:39:23;;;;;;;10.40;5.10;;;;;;;;;;5072422;28;20056;-81
2022/05/05 02:41:49;;;;;;;10.55;5.18;;;;;;;;;;5072272;28;20450;-81
2022/05/05 02:44:15;;;;;;;10.43;4.80;;;;;;;;;;5072280;28;20096;-81
2022/05/05 02:46:41;;;;;;;10.10;4.15;;;;;;;;;;5072604;28;20040;-81
2022/05/05 02:49:07;;;;;;;10.80;6.07;;;;;;;;;;5055783;28;20063;-81
2022/05/05 02:51:33;;;;;;;8.00;5.03;;;;;;;;;;5055816;28;20055;-81
2022/05/05 02:56:43;;;;;;;13.25;6.18;;;;;;;;;;5072393;28;20044;-81
2022/05/05 02:59:09;;;;;;;16.30;6.03;;;;;;;;;;5055296;28;20098;-81
2022/05/05 03:01:35;;;;;;;13.18;5.63;;;;;;;;;;5055376;28;20036;-81
2022/05/05 03:04:01;;;;;;;10.18;5.60;;;;;;;;;;5055212;28;20094;-81
2022/05/05 03:06:27;;;;;;;12.63;5.05;;;;;;;;;;5054955;28;20117;-81
2022/05/05 03:08:53;;;;;;;10.07;5.57;;;;;;;;;;5055370;28;20037;-81
2022/05/05 03:11:19;;;;;;;13.52;6.38;;;;;;;;;;5055604;28;20467;-81
2022/05/05 03:13:45;;;;;;;13.45;6.30;;;;;;;;;;5072312;28;20041;-81
2022/05/05 03:16:11;;;;;;;11.35;5.55;;;;;;;;;;5055272;28;20083;-81
2022/05/05 03:18:40;;;;;;;12.52;6.53;;;;;;;;;;5055508;28;20044;-81
2022/05/05 03:21:06;;;;;;;15.50;6.13;;;;;;;;;;5055282;28;20040;-81
2022/05/05 03:23:32;;;;;;;11.32;5.75;;;;;;;;;;5054840;28;20181;-81
2022/05/05 03:25:58;;;;;;;8.57;5.85;;;;;;;;;;5055161;28;20512;-80
2022/05/05 03:28:24;;;;;;;14.27;5.68;;;;;;;;;;5055065;28;20127;-81
2022/05/05 03:30:50;;;;;;;15.60;5.78;;;;;;;;;;5054724;28;20040;-81
2022/05/05 03:33:16;;;;;;;19.00;6.07;;;;;;;;;;5071520;28;20447;-81
2022/05/05 03:35:42;;;;;;;15.32;5.22;;;;;;;;;;5054595;28;20135;-81
2022/05/05 03:38:08;;;;;;;13.88;6.50;;;;;;;;;;5054543;28;20052;-81
2022/05/05 03:40:35;;;;;;;9.77;5.85;;;;;;;;;;5053623;28;20043;-81
2022/05/05 03:43:01;;;;;;;10.45;5.18;;;;;;;;;;5053329;28;20962;-81
2022/05/05 03:45:27;;;;;;;13.27;5.95;;;;;;;;;;5051489;28;20046;-81
2022/05/05 03:47:53;;;;;;;11.07;6.50;;;;;;;;;;5054332;28;20093;-81
2022/05/05 03:50:19;;;;;;;12.43;5.88;;;;;;;;;;5054215;28;20044;-81
2022/05/05 03:52:45;;;;;;;10.82;5.78;;;;;;;;;;5053736;28;20119;-81
2022/05/05 03:55:11;;;;;;;11.85;6.05;;;;;;;;;;5053715;28;20039;-81
2022/05/05 03:57:37;;;;;;;9.38;5.22;;;;;;;;;;5053885;28;20082;-81
2022/05/05 04:00:04;;;;;;;11.05;5.80;;;;;;;;;;5070700;28;20036;-81
2022/05/05 04:02:30;;;;;;;9.60;6.05;;;;;;;;;;5053883;28;20408;-81
2022/05/05 04:04:56;;;;;;;15.57;6.18;;;;;;;;;;5053959;28;20045;-81
2022/05/05 04:07:22;;;;;;;15.25;6.72;;;;;;;;;;5053631;28;20082;-81
2022/05/05 04:09:48;;;;;;;12.15;6.28;;;;;;;;;;5053740;28;20484;-81
2022/05/05 04:12:14;;;;;;;17.48;7.00;;;;;;;;;;5053937;28;20040;-82
2022/05/05 04:14:40;;;;;;;14.93;6.60;;;;;;;;;;5053858;28;20037;-81
2022/05/05 04:17:06;;;;;;;16.88;6.93;;;;;;;;;;5052987;28;20082;-81
2022/05/05 04:19:32;;;;;;;13.50;6.50;;;;;;;;;;5053844;28;20483;-81
2022/05/05 04:21:58;;;;;;;14.63;6.88;;;;;;;;;;5070519;28;20059;-81
2022/05/05 04:24:24;;;;;;;15.73;6.93;;;;;;;;;;5053669;28;20044;-81
2022/05/05 04:26:50;;;;;;;10.95;6.60;;;;;;;;;;5070427;28;20136;-81
2022/05/05 04:29:16;;;;;;;17.70;7.88;;;;;;;;;;5070171;28;20042;-81
2022/05/05 04:31:43;;;;;;;17.95;7.30;;;;;;;;;;5051719;28;20175;-81
2022/05/05 04:34:09;;;;;;;19.00;6.75;;;;;;;;;;5043728;28;20047;-81
2022/05/05 04:36:36;;;;;;;15.93;7.68;;;;;;;;;;5049448;28;20086;-81
2022/05/05 04:39:03;;;;;;;19.98;7.40;;;;;;;;;;5049652;28;20075;-81
2022/05/05 04:41:29;;;;;;;15.85;7.47;;;;;;;;;;5063941;28;20082;-81
2022/05/05 04:43:55;;;;;;;13.32;7.32;;;;;;;;;;5049893;28;20369;-81
2022/05/05 04:46:21;;;;;;;15.40;6.63;;;;;;;;;;5068086;28;20036;-81
2022/05/05 04:48:48;;;;;;;14.57;7.72;;;;;;;;;;5052784;28;20127;-81
2022/05/05 04:51:14;;;;;;;13.70;6.70;;;;;;;;;;5053047;28;20037;-81
2022/05/05 04:53:40;;;;;;;15.65;7.38;;;;;;;;;;5053145;28;20036;-81
2022/05/05 04:56:06;;;;;;;15.57;8.00;;;;;;;;;;5053107;28;20048;-81
2022/05/05 04:58:35;;;;;;;19.63;7.63;;;;;;;;;;5053688;28;20049;-81
2022/05/05 05:01:01;;;;;;;24.40;7.55;;;;;;;;;;5053616;28;20125;-81
2022/05/05 05:03:35;;;;;;;16.63;7.43;;;;;;;;;;5070469;28;20091;-81
2022/05/05 05:06:01;;;;;;;14.43;7.57;;;;;;;;;;5053556;28;20044;-81
2022/05/05 05:08:27;;;;;;;15.95;7.18;;;;;;;;;;5053683;28;20040;-80
2022/05/05 05:10:53;;;;;;;22.85;8.40;;;;;;;;;;5070282;28;20080;-80
2022/05/05 05:13:19;;;;;;;16.98;6.95;;;;;;;;;;5053762;28;20113;-81
2022/05/05 05:15:45;;;;;;;14.57;7.10;;;;;;;;;;5053349;28;20037;-80
2022/05/05 05:18:11;;;;;;;17.25;7.72;;;;;;;;;;5053580;28;20078;-80
2022/05/05 05:20:37;;;;;;;12.82;7.28;;;;;;;;;;5070328;28;20067;-80
2022/05/05 05:23:03;;;;;;;13.13;7.07;;;;;;;;;;5053513;28;20040;-80
2022/05/05 05:25:29;;;;;;;19.90;8.75;;;;;;;;;;5053509;28;20048;-80
2022/05/05 05:27:55;;;;;;;15.30;7.35;;;;;;;;;;5053431;28;20044;-80
2022/05/05 05:30:21;;;;;;;20.00;7.75;;;;;;;;;;5073191;28;20121;-81
2022/05/05 05:32:47;;;;;;;14.68;8.43;;;;;;;;;;5073723;28;20480;-81
2022/05/05 05:35:13;;;;;;;14.13;7.78;;;;;;;;;;5056870;28;20072;-81
2022/05/05 05:37:39;;;;;;;17.73;6.95;;;;;;;;;;5056919;28;20033;-80
2022/05/05 05:40:05;;;;;;;14.55;7.28;;;;;;;;;;5056513;28;20136;-80
2022/05/05 05:42:31;;;;;;;14.85;7.07;;;;;;;;;;5057221;28;20131;-80
2022/05/05 05:44:57;;;;;;;20.83;8.93;;;;;;;;;;5058513;28;20459;-81
2022/05/05 05:47:23;;;;;;;13.40;7.53;;;;;;;;;;5058754;28;20492;-80
2022/05/05 05:49:49;;;;;;;15.65;8.07;;;;;;;;;;5058321;28;20047;-83
2022/05/05 05:52:15;;;;;;;16.77;8.05;;;;;;;;;;5056889;28;20032;-81
2022/05/05 05:54:41;;;;;;;17.15;7.72;;;;;;;;;;5073381;28;20131;-81
2022/05/05 05:57:07;;;;;;;15.50;8.98;;;;;;;;;;5056767;28;20032;-80
2022/05/05 05:59:33;;;;;;;16.13;7.97;;;;;;;;;;5056330;28;20040;-81
2022/05/05 06:04:44;;;;;;;19.90;8.75;;;;;;;;;;5072871;28;20050;-81
2022/05/05 06:07:10;;;;;;;15.73;7.55;;;;;;;;;;5056532;28;20044;-80
2022/05/05 06:09:35;;;;;;;15.77;7.22;;;;;;;;;;5056505;28;20106;-81
2022/05/05 06:12:03;;;;;;;16.45;7.93;;;;;;;;;;5056535;28;20036;-80
2022/05/05 06:14:30;;;;;;;16.17;6.95;;;;;;;;;;5073084;28;20044;-80
2022/05/05 06:16:56;;;;;;;16.30;7.65;;;;;;;;;;5072452;28;20530;-81
2022/05/05 06:19:22;;;;;;;12.98;7.55;;;;;;;;;;5056059;28;20029;-80
2022/05/05 06:21:48;;;;;;;12.30;7.43;;;;;;;;;;5055668;28;20028;-80
2022/05/05 06:24:13;;;;;;;13.82;7.60;;;;;;;;;;5055584;28;20032;-80
2022/05/05 06:26:39;;;;;;;17.90;7.32;;;;;;;;;;5072119;28;20048;-81
2022/05/05 06:29:06;;;;;;;16.52;7.45;;;;;;;;;;5055866;28;20032;-80
2022/05/05 06:31:32;;;;;;;15.48;7.43;;;;;;;;;;5055304;28;20036;-81
2022/05/05 06:33:58;;;;;;;13.60;7.22;;;;;;;;;;5055483;28;20044;-80
2022/05/05 06:36:24;;;;;;;19.10;7.57;;;;;;;;;;5055530;28;20036;-81
2022/05/05 06:38:53;;;;;;;16.65;8.00;;;;;;;;;;5055373;28;20129;-79
2022/05/05 06:41:20;;;;;;;16.70;7.70;;;;;;;;;;5054671;28;20049;-81
2022/05/05 06:43:46;;;;;;;16.02;7.72;;;;;;;;;;5052624;28;20546;-80
2022/05/05 06:46:12;;;;;;;25.15;8.55;;;;;;;;;;5055144;28;20400;-81
2022/05/05 06:48:38;;;;;;;11.98;7.10;;;;;;;;;;5055103;28;20047;-80
2022/05/05 06:51:06;;;;;;;13.38;7.82;;;;;;;;;;5054993;28;20036;-81
2022/05/05 06:53:32;;;;;;;16.90;7.95;;;;;;;;;;5071878;28;20412;-80
2022/05/05 06:55:58;;;;;;;15.65;7.68;;;;;;;;;;5071927;28;20048;-80
2022/05/05 06:58:24;;;;;;;15.73;8.40;;;;;;;;;;5054998;28;20042;-80
2022/05/05 07:03:35;;;;;;;12.45;7.07;;;;;;;;;;5070630;28;20123;-80
2022/05/05 07:06:01;;;;;;;13.90;7.65;;;;;;;;;;5054719;28;20120;-80
2022/05/05 07:08:28;;;;;;;12.20;7.65;;;;;;;;;;5054682;28;20033;-80
2022/05/05 07:10:54;;;;;;;14.40;7.82;;;;;;;;;;5054473;28;20044;-80
2022/05/05 07:13:20;;;;;;;14.55;6.40;;;;;;;;;;5054987;28;20458;-80
2022/05/05 07:15:46;;;;;;;12.05;6.63;;;;;;;;;;5054519;28;20091;-80
2022/05/05 07:18:12;;;;;;;12.68;5.65;;;;;;;;;;5054601;28;20033;-79
2022/05/05 07:20:38;;;;;;;10.05;6.47;;;;;;;;;;5055095;28;20032;-81
2022/05/05 07:23:07;;;;;;;12.13;6.22;;;;;;;;;;5054369;28;20032;-79
2022/05/05 07:25:33;;;;;;;12.35;6.50;;;;;;;;;;5071473;28;20048;-80
2022/05/05 07:28:00;;;;;;;11.52;6.45;;;;;;;;;;5054408;28;20079;-80
2022/05/05 07:30:25;;;;;;;13.05;6.63;;;;;;;;;;5052855;28;20133;-79
2022/05/05 07:32:51;;;;;;;11.10;6.63;;;;;;;;;;5055159;28;20080;-80
2022/05/05 07:35:17;;;;;;;13.93;7.43;;;;;;;;;;5054592;28;20043;-80
2022/05/05 07:37:44;;;;;;;12.85;6.97;;;;;;;;;;5071194;28;20515;-80
2022/05/05 07:40:11;;;;;;;16.67;6.90;;;;;;;;;;5054145;28;20047;-80
2022/05/05 07:42:37;;;;;;;14.10;7.85;;;;;;;;;;5053182;28;20033;-79
2022/05/05 07:45:05;;;;;;;18.52;7.05;;;;;;;;;;5051103;28;20053;-80
2022/05/05 07:47:33;;;;;;;15.75;7.18;;;;;;;;;;5050836;28;20094;-80
2022/05/05 07:49:59;;;;;;;11.88;6.10;;;;;;;;;;5050039;28;20090;-80
2022/05/05 07:52:25;;;;;;;11.15;6.50;;;;;;;;;;5049615;28;20446;-80
2022/05/05 07:54:51;;;;;;;12.88;7.00;;;;;;;;;;5050531;28;20040;-80
2022/05/05 07:57:20;;;;;;;10.85;6.65;;;;;;;;;;5066878;28;20039;-80
2022/05/05 07:59:46;;;;;;;11.95;6.15;;;;;;;;;;5066659;28;20079;-80
2022/05/05 08:02:16;;;;;;;13.43;6.25;;;;;;;;;;5050436;28;20124;-80
2022/05/05 08:04:42;;;;;;;12.38;6.70;;;;;;;;;;5050133;28;20135;-81
2022/05/05 08:07:08;;;;;;;13.13;5.88;;;;;;;;;;5066706;28;20117;-80
2022/05/05 08:09:35;;;;;;;12.48;6.03;;;;;;;;;;5066849;28;20036;-81
2022/05/05 08:12:01;;;;;;;10.52;6.07;;;;;;;;;;5047226;28;20093;-79
2022/05/05 08:14:27;;;;;;;14.18;5.47;;;;;;;;;;5050294;28;20041;-80
2022/05/05 08:16:53;;;;;;;8.40;5.20;;;;;;;;;;5067042;28;20609;-79
2022/05/05 08:19:21;;;;;;;7.53;4.18;;;;;;;;;;5051615;28;20042;-79
2022/05/05 08:21:47;;;;;;;6.03;4.13;;;;;;;;;;5053659;28;20036;-80
2022/05/05 08:30:03;;;;;;;12.65;4.55;;;;;;;;;;5028379;28;20037;-80
2022/05/05 08:32:29;;;;;;;10.43;4.47;;;;;;;;;;5031603;28;20098;-81
2022/05/05 08:34:55;;;;;;;5.60;3.88;;;;;;;;;;5049919;28;20506;-80
2022/05/05 08:37:22;;;;;;;8.88;4.70;;;;;;;;;;5049877;28;20040;-79
2022/05/05 08:39:48;;;;;;;9.18;4.07;;;;;;;;;;5049926;28;20041;-79
2022/05/05 08:42:14;;;;;;;8.93;3.88;;;;;;;;;;5066608;28;20044;-81
2022/05/05 08:44:40;;;;;;;7.10;3.45;;;;;;;;;;5050018;28;20058;-80
2022/05/05 08:47:10;;;;;;;8.38;4.03;;;;;;;;;;5050166;28;20122;-80
2022/05/05 08:49:39;;;;;;;6.43;3.33;;;;;;;;;;5066265;28;20094;-80
2022/05/05 08:52:10;;;;;;;5.10;3.70;;;;;;;;;;5049907;28;20396;-79
2022/05/05 08:54:39;;;;;;;8.27;3.75;;;;;;;;;;5050967;28;20040;-80
2022/05/05 08:57:05;;;;;;;6.93;3.33;;;;;;;;;;5054081;28;20082;-80
2022/05/05 08:59:31;;;;;;;7.30;3.65;;;;;;;;;;5054724;28;20123;-80
2022/05/05 09:01:57;;;;;;;10.15;4.05;;;;;;;;;;5053258;28;20127;-81
2022/05/05 09:04:23;;;;;;;7.70;3.55;;;;;;;;;;5056726;28;20063;-80
2022/05/05 09:06:51;;;;;;;8.23;3.95;;;;;;;;;;5074163;28;20037;-80
2022/05/05 09:09:23;;;;;;;6.05;3.45;;;;;;;;;;5074095;28;20046;-79
2022/05/05 09:12:09;;;;;;;8.50;4.03;;;;;;;;;;5057327;28;20037;-80
2022/05/05 09:14:36;;;;;;;5.60;3.75;;;;;;;;;;5073880;28;20048;-79
2022/05/05 09:17:07;;;;;;;6.38;3.50;;;;;;;;;;5057305;28;20072;-80
2022/05/05 09:19:36;;;;;;;7.32;4.30;;;;;;;;;;5070507;28;20127;-80
2022/05/05 09:22:03;;;;;;;8.17;3.83;;;;;;;;;;5053721;28;20053;-80
2022/05/05 09:24:35;;;;;;;7.45;3.70;;;;;;;;;;5070393;28;20090;-79
2022/05/05 09:27:19;;;;;;;5.55;3.88;;;;;;;;;;5070582;28;20095;-80
2022/05/05 09:30:04;;;;;;;5.10;3.10;;;;;;;;;;5053839;28;20051;-81
2022/05/05 09:32:31;;;;;;;7.63;3.58;;;;;;;;;;5053542;28;20060;-80
2022/05/05 09:35:02;;;;;;;4.47;3.20;;;;;;;;;;5053369;28;20044;-80
2022/05/05 09:37:28;;;;;;;7.90;3.53;;;;;;;;;;5053379;28;20433;-79
2022/05/05 09:39:55;;;;;;;5.38;3.60;;;;;;;;;;5053546;28;20088;-79
2022/05/05 09:42:38;;;;;;;8.50;4.63;;;;;;;;;;5053078;28;20348;-79
2022/05/05 09:45:17;;;;;;;6.57;3.90;;;;;;;;;;5053256;28;20447;-79
2022/05/05 09:47:45;;;;;;;8.68;4.25;;;;;;;;;;5069731;28;20429;-80
2022/05/05 09:50:12;;;;;;;5.05;3.97;;;;;;;;;;5069742;28;20086;-81
2022/05/05 09:58:09;;;;;;;7.68;4.40;;;;;;;;;;5069610;28;20068;-79
2022/05/05 10:05:51;;;;;;;10.43;4.30;;;;;;;;;;5069381;28;20049;-80
2022/05/05 10:08:21;;;;;;;7.13;3.85;;;;;;;;;;5053278;28;20036;-80
2022/05/05 10:10:47;;;;;;;5.47;3.53;;;;;;;;;;5052477;28;20476;-79
2022/05/05 10:13:13;;;;;;;6.70;4.15;;;;;;;;;;5069449;28;20492;-79
2022/05/05 10:15:40;;;;;;;7.68;6.15;;;;;;;;;;5051700;28;20083;-79
2022/05/05 10:18:06;;;;;;;9.52;6.05;;;;;;;;;;5069538;28;20128;-79
2022/05/05 10:20:33;;;;;;;8.55;4.25;;;;;;;;;;5052614;28;20032;-80
2022/05/05 10:23:17;;;;;;;8.73;4.95;;;;;;;;;;5052050;28;20448;-80
2022/05/05 10:25:43;;;;;;;6.93;5.93;;;;;;;;;;5052648;28;20052;-79
2022/05/05 10:28:36;;;;;;;9.95;5.35;;;;;;;;;;5052757;28;20110;-82
2022/05/05 10:31:02;;;;;;;8.70;4.78;;;;;;;;;;5052664;28;20127;-82
2022/05/05 10:33:47;;;;;;;9.65;7.03;;;;;;;;;;5069107;28;20447;-80
2022/05/05 10:36:23;;;;;;;8.77;4.75;;;;;;;;;;5051812;28;20175;-80
2022/05/05 10:38:49;;;;;;;6.20;3.80;;;;;;;;;;5068898;28;20056;-80
2022/05/05 10:41:37;;;;;;;10.73;5.75;;;;;;;;;;5052016;28;20052;-80
2022/05/05 10:44:19;;;;;;;10.32;4.18;;;;;;;;;;5068808;28;20098;-80
2022/05/05 10:46:53;;;;;;;5.65;3.78;;;;;;;;;;5068571;28;20044;-79
2022/05/05 10:49:37;;;;;;;6.60;3.63;;;;;;;;;;5069123;28;20048;-79
2022/05/05 10:52:12;;;;;;;5.40;4.43;;;;;;;;;;5070536;28;20052;-80
2022/05/05 10:54:38;;;;;;;8.18;6.72;;;;;;;;;;5072083;28;20045;-80
2022/05/05 10:57:22;;;;;;;7.40;6.65;;;;;;;;;;5055390;28;20647;-80
2022/05/05 11:00:07;;;;;;;11.27;4.90;;;;;;;;;;5055108;28;20044;-81
2022/05/05 11:02:33;;;;;;;7.82;5.95;;;;;;;;;;5072296;28;20054;-80
2022/05/05 11:05:18;;;;;;;8.98;6.15;;;;;;;;;;5055185;28;20051;-79
2022/05/05 11:07:44;;;;;;;5.85;3.90;;;;;;;;;;5071837;28;20037;-79
2022/05/05 11:10:30;;;;;;;7.70;5.35;;;;;;;;;;5071682;28;20484;-84
2022/05/05 11:12:56;;;;;;;10.25;4.07;;;;;;;;;;5071890;28;20496;-81
2022/05/05 11:23:57;;;;;;;5.30;3.05;;;;;;;;;;5071841;28;20041;-80
2022/05/05 11:26:23;;;;;;;5.22;4.72;;;;;;;;;;5071532;28;20040;-80
2022/05/05 11:28:49;;;;;;;4.95;3.05;;;;;;;;;;5071796;28;20053;-79
2022/05/05 11:31:17;;;;;;;7.45;4.38;;;;;;;;;;5054679;28;20541;-80
2022/05/05 11:33:46;;;;;;;7.13;5.85;;;;;;;;;;5071623;28;20044;-79
2022/05/05 11:36:12;;;;;;;8.43;4.37;;;;;;;;;;5071339;28;20041;-80
2022/05/05 11:38:41;;;;;;;5.60;4.97;;;;;;;;;;5070929;28;20063;-78
2022/05/05 11:41:07;;;;;;;4.53;2.95;;;;;;;;;;5071088;28;20127;-79
2022/05/05 11:46:19;;;;;;;3.20;2.45;;;;;;;;;;5070998;28;20048;-82
2022/05/05 11:48:53;;;;;;;4.75;2.75;;;;;;;;;;5054711;28;20044;-78
2022/05/05 11:51:31;;;;;;;5.88;3.40;;;;;;;;;;5054461;28;20127;-80
2022/05/05 11:54:07;;;;;;;3.72;2.88;;;;;;;;;;5054589;28;20040;-79
2022/05/05 11:56:35;;;;;;;6.43;4.72;;;;;;;;;;5070774;28;20377;-79
2022/05/05 12:01:59;;;;;;;6.65;4.32;;;;;;;;;;5070803;28;20041;-79
2022/05/05 12:04:25;;;;;;;4.95;2.70;;;;;;;;;;5054111;28;20407;-79
2022/05/05 12:06:51;;;;;;;6.35;4.88;;;;;;;;;;5054107;28;20396;-80
2022/05/05 12:09:20;;;;;;;5.15;2.85;;;;;;;;;;5070709;28;20040;-79
2022/05/05 12:11:46;;;;;;;4.55;3.15;;;;;;;;;;5053952;28;20048;-80
2022/05/05 12:14:13;;;;;;;6.20;4.05;;;;;;;;;;5070694;28;20066;-80
2022/05/05 12:16:40;;;;;;;4.10;2.85;;;;;;;;;;5070467;28;20044;-77
2022/05/05 12:19:17;;;;;;;5.70;3.15;;;;;;;;;;5070808;28;20507;-79
2022/05/05 12:21:57;;;;;;;6.65;3.70;;;;;;;;;;5054087;28;20037;-80
2022/05/05 12:24:24;;;;;;;7.13;3.28;;;;;;;;;;5054020;28;20051;-80
2022/05/05 12:26:51;;;;;;;7.28;3.83;;;;;;;;;;5054212;28;20040;-82
2022/05/05 12:29:19;;;;;;;5.90;3.05;;;;;;;;;;5070487;28;20044;-81
2022/05/05 12:31:54;;;;;;;6.72;3.20;;;;;;;;;;5053700;28;20074;-81
2022/05/05 12:34:22;;;;;;;6.72;3.40;;;;;;;;;;5053725;28;20052;-81
2022/05/05 12:36:48;;;;;;;5.95;3.33;;;;;;;;;;5053600;28;20047;-81
2022/05/05 12:39:14;;;;;;;6.32;3.60;;;;;;;;;;5069780;28;20048;-79
2022/05/05 12:41:56;;;;;;;5.05;2.50;;;;;;;;;;5053481;28;20041;-77
2022/05/05 12:44:22;;;;;;;5.68;3.85;;;;;;;;;;5053670;28;20036;-80
2022/05/05 12:46:52;;;;;;;3.72;2.60;;;;;;;;;;5053441;28;20036;-78
2022/05/05 12:49:37;;;;;;;4.15;2.65;;;;;;;;;;5053714;28;20047;-75
2022/05/05 12:52:04;;;;;;;4.80;2.50;;;;;;;;;;5070133;28;20079;-79
2022/05/05 12:59:58;;;;;;;8.38;5.53;;;;;;;;;;5070048;28;20061;-73
2022/05/05 13:02:25;;;;;;;4.35;2.88;;;;;;;;;;5053362;28;20036;-79
2022/05/05 13:04:51;;;;;;;6.93;4.07;;;;;;;;;;5053244;28;20055;-80
2022/05/05 13:07:17;;;;;;;6.63;3.72;;;;;;;;;;5070273;28;20040;-80
2022/05/05 13:09:43;;;;;;;5.13;3.13;;;;;;;;;;5053225;28;20060;-80
2022/05/05 13:12:09;;;;;;;7.18;5.15;;;;;;;;;;5069859;28;20382;-81
2022/05/05 13:14:35;;;;;;;8.45;4.40;;;;;;;;;;5053303;28;20037;-81
2022/05/05 13:17:01;;;;;;;4.95;3.55;;;;;;;;;;5053143;28;20040;-80
2022/05/05 13:19:29;;;;;;;6.90;3.50;;;;;;;;;;5053078;28;20082;-80
2022/05/05 13:21:55;;;;;;;7.05;3.42;;;;;;;;;;5069883;28;20040;-80
2022/05/05 13:24:21;;;;;;;7.65;5.55;;;;;;;;;;5053422;28;20032;-80
2022/05/05 13:26:48;;;;;;;4.65;2.97;;;;;;;;;;5053261;28;20036;-80
2022/05/05 13:29:14;;;;;;;6.95;5.32;;;;;;;;;;5070270;28;20048;-80
2022/05/05 13:31:40;;;;;;;6.03;4.25;;;;;;;;;;5053255;28;20110;-80
2022/05/05 13:34:07;;;;;;;5.82;4.25;;;;;;;;;;5070096;28;20040;-82
2022/05/05 13:36:33;;;;;;;5.13;3.78;;;;;;;;;;5069615;28;20047;-81
2022/05/05 13:38:59;;;;;;;12.85;4.55;;;;;;;;;;5052681;28;20052;-80
2022/05/05 13:41:25;;;;;;;7.60;5.65;;;;;;;;;;5053745;28;20502;-79
2022/05/05 13:43:51;;;;;;;6.78;3.67;;;;;;;;;;5070192;28;20119;-79
2022/05/05 13:46:17;;;;;;;8.27;4.97;;;;;;;;;;5053502;28;20434;-80
2022/05/05 13:48:43;;;;;;;5.95;4.60;;;;;;;;;;5053477;28;20131;-78
2022/05/05 13:51:09;;;;;;;6.00;3.88;;;;;;;;;;5073011;28;20049;-79
2022/05/05 13:53:35;;;;;;;7.15;3.83;;;;;;;;;;5073513;28;20049;-77
2022/05/05 13:56:01;;;;;;;8.00;4.10;;;;;;;;;;5056400;28;20044;-80
2022/05/05 13:58:27;;;;;;;8.40;7.60;;;;;;;;;;5056523;28;20055;-80
2022/05/05 14:00:53;;;;;;;5.68;3.83;;;;;;;;;;5056694;28;20036;-82
2022/05/05 14:03:19;;;;;;;8.43;4.05;;;;;;;;;;5073125;28;20044;-81
2022/05/05 14:05:45;;;;;;;8.70;4.80;;;;;;;;;;5073061;28;20480;-79
2022/05/05 14:13:40;;;;;;;7.95;4.45;;;;;;;;;;5072894;28;20044;-80
2022/05/05 14:16:07;;;;;;;5.93;3.85;;;;;;;;;;5072994;28;20499;-79
2022/05/05 14:18:33;;;;;;;8.27;4.80;;;;;;;;;;5056372;28;20051;-81
2022/05/05 14:20:59;;;;;;;4.88;3.90;;;;;;;;;;5072924;28;20036;-78
2022/05/05 14:23:25;;;;;;;8.60;4.65;;;;;;;;;;5055915;28;20488;-77
2022/05/05 14:25:51;;;;;;;8.77;4.00;;;;;;;;;;5055933;28;20052;-76
2022/05/05 14:28:17;;;;;;;6.88;4.50;;;;;;;;;;5072318;28;20131;-77
2022/05/05 14:30:42;;;;;;;5.70;4.22;;;;;;;;;;5056113;28;20040;-81
2022/05/05 14:33:08;;;;;;;11.38;5.60;;;;;;;;;;5072409;28;20047;-80
2022/05/05 14:35:34;;;;;;;7.72;5.30;;;;;;;;;;5055801;28;20082;-80
2022/05/05 14:38:03;;;;;;;8.85;4.32;;;;;;;;;;5055930;28;20492;-79
2022/05/05 14:40:29;;;;;;;12.13;4.60;;;;;;;;;;5072728;28;20484;-80
2022/05/05 14:42:55;;;;;;;6.10;3.90;;;;;;;;;;5055851;28;20042;-79
2022/05/05 14:45:21;;;;;;;6.03;3.88;;;;;;;;;;5072424;28;20046;-79
2022/05/05 14:47:47;;;;;;;7.90;4.75;;;;;;;;;;5072229;28;20044;-79
2022/05/05 14:50:13;;;;;;;6.75;4.05;;;;;;;;;;5055626;28;20048;-80
2022/05/05 14:52:41;;;;;;;9.02;5.32;;;;;;;;;;5055615;28;20067;-80
2022/05/05 14:55:08;;;;;;;6.78;4.10;;;;;;;;;;5072612;28;20048;-81
2022/05/05 14:57:36;;;;;;;7.00;4.07;;;;;;;;;;5055728;28;20085;-77
2022/05/05 15:00:03;;;;;;;8.05;5.70;;;;;;;;;;5055397;28;20070;-79
2022/05/05 15:02:29;;;;;;;6.75;4.72;;;;;;;;;;5054902;28;20485;-80
2022/05/05 15:04:55;;;;;;;5.53;4.40;;;;;;;;;;5055307;28;20051;-78
2022/05/05 15:07:20;;;;;;;5.03;3.75;;;;;;;;;;5055131;28;20432;-78
2022/05/05 15:09:48;;;;;;;6.45;3.75;;;;;;;;;;5055245;28;20036;-80
2022/05/05 15:12:14;;;;;;;8.45;6.55;;;;;;;;;;5072296;28;20040;-81
2022/05/05 15:14:40;;;;;;;7.13;4.57;;;;;;;;;;5055057;28;20055;-81
2022/05/05 15:17:06;;;;;;;6.25;4.00;;;;;;;;;;5055019;28;20408;-80
2022/05/05 15:19:34;;;;;;;9.70;4.00;;;;;;;;;;5072877;28;20041;-79
2022/05/05 15:22:00;;;;;;;7.90;3.97;;;;;;;;;;5055088;28;20067;-79
2022/05/05 15:24:26;;;;;;;5.68;3.83;;;;;;;;;;5071465;28;20094;-79
2022/05/05 15:26:52;;;;;;;9.15;4.45;;;;;;;;;;5071676;28;20032;-78
2022/05/05 15:29:18;;;;;;;6.93;4.40;;;;;;;;;;5071421;28;20127;-81
2022/05/05 15:31:44;;;;;;;6.40;5.50;;;;;;;;;;5071570;28;20124;-80
2022/05/05 15:34:10;;;;;;;5.65;3.90;;;;;;;;;;5069723;28;20147;-80
2022/05/05 15:36:36;;;;;;;6.40;4.13;;;;;;;;;;5068033;28;20090;-79